| time (UTC) | temp F | wind direction | speed MPH | gust MPH | rain 1hr in | rain 24hr in | rain mn in | humidity % | barometer mb |
| 20260906223106 | 95 | 48 | 8.0 | 12.0 | 0.00 | 0.00 | 0.00 | 41 | 1013.4 |
| 20260906221606 | 93 | 340 | 8.0 | 12.0 | 0.00 | 0.00 | 0.00 | 43 | 1013.6 |
| 20260906220054 | 94 | 27 | 9.0 | 18.0 | 0.00 | 0.00 | 0.00 | 40 | 1013.6 |
| 20260906214553 | 97 | 18 | 8.0 | 13.0 | 0.00 | 0.00 | 0.00 | 38 | 1013.6 |
| 20260906213059 | 96 | 69 | 4.0 | 14.0 | 0.00 | 0.00 | 0.00 | 38 | 1013.6 |
| 20260906211603 | 97 | 39 | 6.0 | 12.0 | 0.00 | 0.00 | 0.00 | 38 | 1013.9 |
| 20260906210112 | 96 | 23 | 5.0 | 17.0 | 0.00 | 0.00 | 0.00 | 39 | 1014.1 |
| 20260906204556 | 94 | 19 | 6.0 | 11.0 | 0.00 | 0.00 | 0.00 | 41 | 1014.4 |
| 20260906203054 | 94 | 181 | 1.0 | 5.0 | 0.00 | 0.00 | 0.00 | 42 | 1014.5 |
| 20260906201633 | 96 | 181 | 6.0 | 10.0 | 0.00 | 0.00 | 0.00 | 39 | 1014.4 |
| 20260906200058 | 97 | 0 | 1.0 | 9.0 | 0.00 | 0.00 | 0.00 | 39 | 1014.7 |
| 20260906194605 | 96 | 59 | 3.0 | 13.0 | 0.00 | 0.00 | 0.00 | 41 | 1014.9 |
| 20260906193056 | 96 | 57 | 8.0 | 14.0 | 0.00 | 0.00 | 0.00 | 41 | 1015.1 |
| 20260906191607 | 94 | 105 | 6.0 | 13.0 | 0.00 | 0.00 | 0.00 | 43 | 1015.2 |
| 20260906190052 | 95 | 181 | 3.0 | 11.0 | 0.00 | 0.00 | 0.00 | 42 | 1015.4 |
| 20260906184601 | 94 | 117 | 4.0 | 13.0 | 0.00 | 0.00 | 0.00 | 43 | 1015.6 |
| 20260906183100 | 92 | 70 | 4.0 | 12.0 | 0.00 | 0.00 | 0.00 | 46 | 1016.0 |
| 20260906181624 | 94 | 358 | 7.0 | 13.0 | 0.00 | 0.00 | 0.00 | 43 | 1016.2 |
| 20260906180106 | 94 | 46 | 7.0 | 14.0 | 0.00 | 0.00 | 0.00 | 43 | 1016.5 |
| 20260906174556 | 93 | 181 | 4.0 | 9.0 | 0.00 | 0.00 | 0.00 | 43 | 1016.8 |
| 20260906173106 | 93 | 181 | 4.0 | 10.0 | 0.00 | 0.00 | 0.00 | 44 | 1017.0 |
| 20260906171554 | 92 | 181 | 2.0 | 11.0 | 0.00 | 0.00 | 0.00 | 45 | 1017.0 |
| 20260906170058 | 92 | 243 | 1.0 | 7.0 | 0.00 | 0.00 | 0.00 | 46 | 1017.2 |
| 20260906164557 | 90 | 182 | 2.0 | 5.0 | 0.00 | 0.00 | 0.00 | 50 | 1017.4 |
| 20260906163102 | 91 | 0 | 0.0 | 2.0 | 0.00 | 0.00 | 0.00 | 47 | 1017.3 |
| 20260906161604 | 91 | 181 | 0.0 | 2.0 | 0.00 | 0.00 | 0.00 | 48 | 1017.4 |
| 20260906160100 | 89 | 181 | 2.0 | 5.0 | 0.00 | 0.00 | 0.00 | 51 | 1017.5 |
| 20260906154559 | 89 | 0 | 0.0 | 4.0 | 0.00 | 0.00 | 0.00 | 53 | 1017.4 |
| 20260906153057 | 89 | 181 | 2.0 | 4.0 | 0.00 | 0.00 | 0.00 | 54 | 1017.4 |
| 20260906151552 | 88 | 181 | 0.0 | 4.0 | 0.00 | 0.00 | 0.00 | 57 | 1017.3 |
| 20260906150100 | 86 | 181 | 0.0 | 2.0 | 0.00 | 0.00 | 0.00 | 59 | 1017.1 |
| 20260906144558 | 86 | 0 | 0.0 | 3.0 | 0.00 | 0.00 | 0.00 | 60 | 1017.2 |
| 20260906143056 | 84 | 96 | 0.0 | 2.0 | 0.00 | 0.00 | 0.00 | 64 | 1017.1 |
| 20260906141559 | 81 | 94 | 1.0 | 4.0 | 0.00 | 0.00 | 0.00 | 65 | 1017.2 |
| 20260906134605 | 80 | 105 | 0.0 | 2.0 | 0.00 | 0.00 | 0.00 | 66 | 1017.0 |
| 20260906133103 | 80 | 0 | 0.0 | 0.0 | 0.00 | 0.00 | 0.00 | 64 | 1016.9 |
| 20260906131554 | 78 | 0 | 0.0 | 0.0 | 0.00 | 0.00 | 0.00 | 65 | 1016.9 |
| 20260906130107 | 76 | 0 | 0.0 | 0.0 | 0.00 | 0.00 | 0.00 | 69 | 1016.7 |
| 20260906124555 | 73 | 0 | 0.0 | 0.0 | 0.00 | 0.00 | 0.00 | 71 | 1016.6 |
| 20260906123058 | 72 | 0 | 0.0 | 0.0 | 0.00 | 0.00 | 0.00 | 74 | 1016.1 |
| 20260906121607 | 72 | 0 | 0.0 | 0.0 | 0.00 | 0.00 | 0.00 | 73 | 1016.0 |
| 20260906120055 | 72 | 0 | 0.0 | 0.0 | 0.00 | 0.00 | 0.00 | 72 | 1015.9 |
| 20260906114612 | 73 | 0 | 0.0 | 0.0 | 0.00 | 0.00 | 0.00 | 70 | 1015.8 |
| 20260906113107 | 75 | 0 | 0.0 | 0.0 | 0.00 | 0.00 | 0.00 | 69 | 1015.9 |
| 20260906111552 | 75 | 0 | 0.0 | 0.0 | 0.00 | 0.00 | 0.00 | 69 | 1015.7 |
| 20260906110054 | 75 | 0 | 0.0 | 0.0 | 0.00 | 0.00 | 0.00 | 69 | 1015.5 |
| 20260906104556 | 74 | 0 | 0.0 | 0.0 | 0.00 | 0.00 | 0.00 | 69 | 1015.5 |
| 20260906103057 | 75 | 0 | 0.0 | 0.0 | 0.00 | 0.00 | 0.00 | 67 | 1015.5 |
| 20260906101605 | 76 | 0 | 0.0 | 0.0 | 0.00 | 0.00 | 0.00 | 67 | 1015.4 |
| 20260906100101 | 76 | 0 | 0.0 | 0.0 | 0.00 | 0.00 | 0.00 | 66 | 1015.1 |
| 20260906094556 | 76 | 0 | 0.0 | 0.0 | 0.00 | 0.00 | 0.00 | 66 | 1015.3 |
| 20260906093058 | 76 | 0 | 0.0 | 0.0 | 0.00 | 0.00 | 0.00 | 65 | 1015.2 |
| 20260906091609 | 77 | 0 | 0.0 | 0.0 | 0.00 | 0.00 | 0.00 | 63 | 1015.1 |
| 20260906090111 | 79 | 0 | 0.0 | 3.0 | 0.00 | 0.00 | 0.00 | 62 | 1015.1 |
| 20260906084600 | 79 | 46 | 1.0 | 6.0 | 0.00 | 0.00 | 0.00 | 61 | 1015.1 |
| 20260906083057 | 79 | 27 | 3.0 | 5.0 | 0.00 | 0.00 | 0.00 | 61 | 1015.1 |
| 20260906081600 | 80 | 37 | 2.0 | 5.0 | 0.00 | 0.00 | 0.00 | 60 | 1015.0 |
| 20260906080100 | 80 | 43 | 3.0 | 6.0 | 0.00 | 0.00 | 0.00 | 59 | 1015.1 |
| 20260906074554 | 81 | 14 | 3.0 | 8.0 | 0.00 | 0.00 | 0.00 | 57 | 1015.3 |
| 20260906073057 | 81 | 22 | 3.0 | 7.0 | 0.00 | 0.00 | 0.00 | 57 | 1015.4 |
| 20260906071606 | 81 | 27 | 4.0 | 7.0 | 0.00 | 0.00 | 0.00 | 55 | 1015.5 |
| 20260906070056 | 82 | 34 | 4.0 | 8.0 | 0.00 | 0.00 | 0.00 | 55 | 1015.5 |
| 20260906064553 | 81 | 33 | 2.0 | 6.0 | 0.00 | 0.00 | 0.00 | 55 | 1015.7 |
| 20260906063059 | 82 | 30 | 1.0 | 3.0 | 0.00 | 0.00 | 0.00 | 53 | 1015.8 |
| 20260906061600 | 82 | 14 | 2.0 | 4.0 | 0.00 | 0.00 | 0.00 | 53 | 1015.9 |
| 20260906060138 | 82 | 39 | 3.0 | 6.0 | 0.00 | 0.00 | 0.00 | 53 | 1016.0 |
| 20260906054554 | 83 | 60 | 2.0 | 7.0 | 0.00 | 0.00 | 0.00 | 51 | 1016.0 |
| 20260906053057 | 84 | 41 | 4.0 | 10.0 | 0.00 | 0.00 | 0.00 | 51 | 1015.8 |
| 20260906051554 | 84 | 28 | 4.0 | 11.0 | 0.00 | 0.00 | 0.00 | 50 | 1015.7 |
| 20260906050110 | 85 | 25 | 3.0 | 8.0 | 0.00 | 0.00 | 0.00 | 49 | 1015.7 |
| 20260906044557 | 85 | 4 | 6.0 | 10.0 | 0.00 | 0.00 | 0.00 | 48 | 1015.7 |
| 20260906043102 | 86 | 6 | 5.0 | 9.0 | 0.00 | 0.00 | 0.00 | 47 | 1015.7 |
| 20260906041557 | 86 | 359 | 6.0 | 13.0 | 0.00 | 0.00 | 0.00 | 47 | 1015.7 |
| 20260906040109 | 87 | 16 | 7.0 | 12.0 | 0.00 | 0.00 | 0.00 | 46 | 1015.6 |
| 20260906034558 | 88 | 22 | 6.0 | 14.0 | 0.00 | 0.00 | 0.00 | 44 | 1015.4 |
| 20260906033058 | 88 | 350 | 5.0 | 13.0 | 0.00 | 0.00 | 0.00 | 44 | 1015.3 |
| 20260906031616 | 88 | 18 | 6.0 | 13.0 | 0.00 | 0.00 | 0.00 | 44 | 1015.0 |
| 20260906030054 | 88 | 6 | 4.0 | 7.0 | 0.00 | 0.00 | 0.00 | 45 | 1014.9 |
| 20260906024557 | 88 | 360 | 4.0 | 7.0 | 0.00 | 0.00 | 0.00 | 44 | 1014.5 |
| 20260906023110 | 89 | 354 | 3.0 | 6.0 | 0.00 | 0.00 | 0.00 | 43 | 1014.4 |
| 20260906021602 | 90 | 319 | 4.0 | 11.0 | 0.00 | 0.00 | 0.00 | 43 | 1014.2 |
| 20260906014559 | 91 | 356 | 6.0 | 11.0 | 0.00 | 0.00 | 0.00 | 40 | 1013.9 |
| 20260906013057 | 91 | 347 | 5.0 | 15.0 | 0.00 | 0.00 | 0.00 | 40 | 1013.8 |
| 20260906011603 | 92 | 334 | 5.0 | 13.0 | 0.00 | 0.00 | 0.00 | 39 | 1013.5 |
| 20260906010109 | 93 | 8 | 5.0 | 14.0 | 0.00 | 0.00 | 0.00 | 38 | 1013.4 |
| 20260906004603 | 93 | 23 | 7.0 | 12.0 | 0.00 | 0.00 | 0.00 | 39 | 1013.2 |
| 20260906003101 | 94 | 356 | 5.0 | 13.0 | 0.00 | 0.00 | 0.00 | 39 | 1013.1 |
| 20260906001554 | 95 | 8 | 9.0 | 12.0 | 0.00 | 0.00 | 0.00 | 38 | 1013.0 |
| 20260906000109 | 96 | 342 | 8.0 | 13.0 | 0.00 | 0.00 | 0.00 | 38 | 1013.0 |
| 20260905234559 | 96 | 38 | 9.0 | 17.0 | 0.00 | 0.00 | 0.00 | 38 | 1012.9 |
| 20260905233102 | 97 | 30 | 4.0 | 8.0 | 0.00 | 0.00 | 0.00 | 37 | 1012.7 |
| 20260905231603 | 97 | 13 | 5.0 | 9.0 | 0.00 | 0.00 | 0.00 | 37 | 1012.5 |
| 20260905224603 | 96 | 19 | 3.0 | 12.0 | 0.00 | 0.00 | 0.00 | 37 | 1012.5 |